createdAt,value
2022-12-08T00:01:17.731Z,98096.28
2022-12-08T00:03:44.959Z,98097.56
2022-12-08T00:06:42.096Z,98084.22
2022-12-08T00:09:22.338Z,98088.03
2022-12-08T00:12:08.548Z,98080.84
2022-12-08T00:14:40.567Z,98081.06
2022-12-08T00:17:09.691Z,98070.72
2022-12-08T00:19:37.030Z,98084.13
2022-12-08T00:22:03.495Z,98078.47
2022-12-08T00:24:31.832Z,98074.47
2022-12-08T00:26:58.381Z,98066.66
2022-12-08T00:29:24.888Z,98063.53
2022-12-08T00:31:51.418Z,98059.91
2022-12-08T00:34:18.071Z,98054.44
2022-12-08T00:36:45.063Z,98056.38
2022-12-08T00:39:12.956Z,98054.31
2022-12-08T00:41:58.066Z,98062.00
2022-12-08T00:44:24.768Z,98061.19
2022-12-08T00:46:51.357Z,98062.09
2022-12-08T00:49:18.010Z,98065.22
2022-12-08T00:51:44.868Z,98068.38
2022-12-08T00:54:11.677Z,98064.50
2022-12-08T00:56:38.424Z,98057.16
2022-12-08T00:59:05.686Z,98051.59
2022-12-08T01:01:32.774Z,98045.03
2022-12-08T01:04:10.417Z,98040.94
2022-12-08T01:06:38.988Z,98038.03
2022-12-08T01:09:06.941Z,98038.09
2022-12-08T01:11:34.296Z,98039.50
2022-12-08T01:14:00.794Z,98034.09
2022-12-08T01:16:33.816Z,98037.13
2022-12-08T01:19:01.306Z,98039.34
2022-12-08T01:21:28.218Z,98033.94
2022-12-08T01:23:55.468Z,98022.72
2022-12-08T01:26:22.205Z,98019.38
2022-12-08T01:28:48.804Z,98018.03
2022-12-08T01:31:19.456Z,98022.28
2022-12-08T01:33:47.372Z,98023.44
2022-12-08T01:36:31.532Z,98028.69
2022-12-08T01:39:02.064Z,98024.63
2022-12-08T01:41:31.943Z,98013.56
2022-12-08T01:44:00.514Z,98016.44
2022-12-08T01:46:29.711Z,98005.19
2022-12-08T01:49:00.886Z,98011.56
2022-12-08T01:51:28.644Z,98015.75
2022-12-08T01:53:55.192Z,98020.97
2022-12-08T01:56:31.693Z,98014.63
2022-12-08T01:58:59.090Z,98017.91
2022-12-08T02:01:25.791Z,98015.66
2022-12-08T02:03:59.439Z,98001.50
2022-12-08T02:06:28.555Z,97999.38
2022-12-08T02:08:55.931Z,97998.03
2022-12-08T02:11:22.658Z,98006.69
2022-12-08T02:13:52.309Z,98004.38
2022-12-08T02:16:43.664Z,98002.31
2022-12-08T02:19:37.825Z,97998.31
2022-12-08T02:22:07.256Z,98000.13
2022-12-08T02:24:45.891Z,97990.41
2022-12-08T02:27:35.535Z,97992.63
2022-12-08T02:30:46.160Z,97985.00
2022-12-08T02:33:15.380Z,97991.84
2022-12-08T02:35:58.592Z,97988.41
2022-12-08T02:38:42.403Z,97985.63
2022-12-08T02:41:29.176Z,97985.81
2022-12-08T02:44:06.280Z,97991.22
2022-12-08T02:46:38.224Z,97989.09
2022-12-08T02:49:05.974Z,97982.75
2022-12-08T02:51:32.525Z,97977.03
2022-12-08T02:54:00.750Z,97982.03
2022-12-08T02:56:38.634Z,97977.34
2022-12-08T02:59:25.158Z,97979.78
2022-12-08T03:02:17.943Z,97979.00
2022-12-08T03:05:22.176Z,97969.81
2022-12-08T03:08:13.083Z,97967.41
2022-12-08T03:10:52.442Z,97965.94
2022-12-08T03:13:26.675Z,97970.94
2022-12-08T03:15:55.661Z,97962.84
2022-12-08T03:18:26.963Z,97969.31
2022-12-08T03:20:53.632Z,97960.50
2022-12-08T03:23:22.130Z,97958.44
2022-12-08T03:25:56.581Z,97961.69
2022-12-08T03:28:23.264Z,97960.75
2022-12-08T03:30:55.575Z,97954.59
2022-12-08T03:33:32.868Z,97955.03
2022-12-08T03:36:02.328Z,97948.84
2022-12-08T03:38:37.751Z,97942.63
2022-12-08T03:41:30.432Z,97936.69
2022-12-08T03:44:00.990Z,97932.69
2022-12-08T03:48:55.683Z,97932.38
2022-12-08T03:51:22.903Z,97930.84
2022-12-08T03:53:50.256Z,97925.03
2022-12-08T03:56:38.894Z,97928.81
2022-12-08T03:59:06.513Z,97925.41
2022-12-08T04:01:33.861Z,97915.28
2022-12-08T04:04:00.373Z,97909.34
2022-12-08T04:06:26.859Z,97914.25
2022-12-08T04:08:53.456Z,97906.97
2022-12-08T04:11:20.323Z,97901.34
2022-12-08T04:13:47.111Z,97898.97
2022-12-08T04:16:22.606Z,97902.44
2022-12-08T04:18:49.634Z,97903.41
2022-12-08T04:21:16.226Z,97901.72
2022-12-08T04:23:42.970Z,97897.34
2022-12-08T04:26:09.742Z,97896.38
2022-12-08T04:28:36.561Z,97896.91
2022-12-08T04:31:03.677Z,97888.63
2022-12-08T04:33:30.248Z,97889.13
2022-12-08T04:35:56.788Z,97882.91
2022-12-08T04:38:23.896Z,97877.28
2022-12-08T04:40:50.362Z,97882.53
2022-12-08T04:43:16.888Z,97877.72
2022-12-08T04:45:43.521Z,97875.19
2022-12-08T04:48:13.153Z,97883.00
2022-12-08T04:50:41.908Z,97885.97
2022-12-08T04:53:09.353Z,97885.16
2022-12-08T04:55:39.573Z,97882.03
2022-12-08T04:58:06.074Z,97880.41
2022-12-08T05:00:32.536Z,97877.44
2022-12-08T05:02:59.097Z,97884.97
2022-12-08T05:05:25.728Z,97883.97
2022-12-08T05:07:52.248Z,97879.75
2022-12-08T05:10:18.800Z,97879.06
2022-12-08T05:12:45.271Z,97891.97
2022-12-08T05:15:11.838Z,97878.75
2022-12-08T05:17:38.362Z,97880.72
2022-12-08T05:20:06.289Z,97880.56
2022-12-08T05:22:33.125Z,97874.38
2022-12-08T05:24:59.706Z,97872.44
2022-12-08T05:27:26.608Z,97867.69
2022-12-08T05:29:53.094Z,97873.25
2022-12-08T05:32:19.621Z,97870.94
2022-12-08T05:34:46.112Z,97863.44
2022-12-08T05:37:12.688Z,97874.69
2022-12-08T05:39:39.182Z,97862.00
2022-12-08T05:42:06.188Z,97864.38
2022-12-08T05:44:32.664Z,97862.78
2022-12-08T05:46:59.272Z,97865.22
2022-12-08T05:49:26.223Z,97870.06
2022-12-08T05:51:52.684Z,97864.72
2022-12-08T05:54:19.217Z,97865.44
2022-12-08T05:56:45.837Z,97867.69
2022-12-08T05:59:12.426Z,97864.44
2022-12-08T06:01:39.175Z,97862.81
2022-12-08T06:04:05.743Z,97865.13
2022-12-08T06:06:35.132Z,97862.16
2022-12-08T06:09:06.175Z,97870.44
2022-12-08T06:11:33.503Z,97869.97
2022-12-08T06:14:00.348Z,97872.53
2022-12-08T06:16:28.244Z,97873.06
2022-12-08T06:18:55.576Z,97870.31
2022-12-08T06:21:22.435Z,97862.50
2022-12-08T06:23:50.684Z,97870.16
2022-12-08T06:26:17.783Z,97859.53
2022-12-08T06:28:44.574Z,97858.25
2022-12-08T06:31:14.904Z,97857.59
2022-12-08T06:33:41.603Z,97861.81
2022-12-08T06:36:08.142Z,97856.59
2022-12-08T06:38:38.117Z,97864.25
2022-12-08T06:41:07.409Z,97861.00
2022-12-08T06:43:34.124Z,97861.16
2022-12-08T06:46:01.754Z,97854.66
2022-12-08T06:48:28.386Z,97856.44
2022-12-08T06:50:54.848Z,97866.16
2022-12-08T06:53:21.399Z,97855.63
2022-12-08T06:56:00.377Z,97862.59
2022-12-08T06:58:26.943Z,97858.22
2022-12-08T07:00:53.786Z,97860.69
2022-12-08T07:03:20.571Z,97857.75
2022-12-08T07:05:47.469Z,97854.66
2022-12-08T07:08:14.136Z,97851.38
2022-12-08T07:10:41.621Z,97859.06
2022-12-08T07:13:08.097Z,97859.66
2022-12-08T07:15:34.602Z,97866.53
2022-12-08T07:18:01.088Z,97860.75
2022-12-08T07:20:27.989Z,97857.84
2022-12-08T07:22:54.564Z,97861.81
2022-12-08T07:25:21.182Z,97859.97
2022-12-08T07:27:48.048Z,97877.72
2022-12-08T07:30:14.967Z,97857.75
2022-12-08T07:32:41.486Z,97859.47
2022-12-08T07:35:10.516Z,97859.06
2022-12-08T07:37:37.601Z,97856.91
2022-12-08T07:40:06.561Z,97850.38
2022-12-08T07:42:33.336Z,97854.91
2022-12-08T07:45:00.606Z,97855.28
2022-12-08T07:47:27.190Z,97857.75
2022-12-08T07:49:53.706Z,97849.59
2022-12-08T07:52:20.308Z,97850.25
2022-12-08T07:54:47.355Z,97847.50
2022-12-08T07:57:13.911Z,97850.59
2022-12-08T07:59:40.407Z,97846.66
2022-12-08T08:02:24.227Z,97858.75
2022-12-08T08:04:51.939Z,97851.91
2022-12-08T08:07:18.450Z,97854.22
2022-12-08T08:09:50.101Z,97843.31
2022-12-08T08:12:32.753Z,97844.56
2022-12-08T08:15:01.315Z,97849.97
2022-12-08T08:17:28.662Z,97847.00
2022-12-08T08:19:55.319Z,97849.03
2022-12-08T08:22:21.780Z,97850.03
2022-12-08T08:24:48.270Z,97859.41
2022-12-08T08:27:14.781Z,97852.28
2022-12-08T08:29:41.290Z,97854.88
2022-12-08T08:32:07.889Z,97852.94
2022-12-08T08:34:34.330Z,97852.44
2022-12-08T08:37:00.916Z,97852.25
2022-12-08T08:39:27.500Z,97849.53
2022-12-08T08:41:54.102Z,97856.16
2022-12-08T08:44:20.568Z,97854.56
2022-12-08T08:46:47.151Z,97859.28
2022-12-08T08:49:13.992Z,97855.38
2022-12-08T08:51:40.697Z,97852.44
2022-12-08T08:54:07.147Z,97852.56
2022-12-08T08:56:33.599Z,97846.56
2022-12-08T08:59:00.080Z,97841.03
2022-12-08T09:01:28.223Z,97844.81
2022-12-08T09:03:57.821Z,97843.97
2022-12-08T09:06:24.937Z,97844.94
2022-12-08T09:08:51.952Z,97846.44
2022-12-08T09:11:18.701Z,97847.41
2022-12-08T09:13:49.342Z,97847.72
2022-12-08T09:16:16.564Z,97843.81
2022-12-08T09:18:43.245Z,97842.03
2022-12-08T09:21:13.183Z,97847.06
2022-12-08T09:23:39.733Z,97845.94
2022-12-08T09:26:06.674Z,97845.75
2022-12-08T09:28:33.600Z,97845.25
2022-12-08T09:31:01.448Z,97848.88
2022-12-08T09:33:27.987Z,97846.72
2022-12-08T09:35:54.732Z,97842.34
2022-12-08T09:38:21.265Z,97839.22
2022-12-08T09:40:54.760Z,97835.69
2022-12-08T09:43:31.741Z,97837.56
2022-12-08T09:45:58.619Z,97831.53
2022-12-08T09:48:34.093Z,97835.94
2022-12-08T09:51:01.202Z,97832.34
2022-12-08T09:53:35.985Z,97837.06
2022-12-08T09:56:13.252Z,97829.06
2022-12-08T09:58:55.025Z,97834.13
2022-12-08T10:01:23.740Z,97830.75
2022-12-08T10:03:50.314Z,97817.72
2022-12-08T10:06:46.415Z,97820.94
2022-12-08T10:09:34.740Z,97813.09
2022-12-08T10:12:18.626Z,97817.69
2022-12-08T10:15:05.482Z,97809.06
2022-12-08T10:17:36.079Z,97800.41
2022-12-08T10:20:21.588Z,97796.59
2022-12-08T10:22:57.287Z,97797.25
2022-12-08T10:25:46.884Z,97792.13
2022-12-08T10:28:14.192Z,97787.47
2022-12-08T10:30:41.073Z,97780.59
2022-12-08T10:33:15.743Z,97781.78
2022-12-08T10:36:04.614Z,97784.41
2022-12-08T10:38:33.242Z,97784.19
2022-12-08T10:41:11.742Z,97776.56
2022-12-08T10:43:43.665Z,97770.38
2022-12-08T10:46:12.697Z,97769.88
2022-12-08T10:48:52.493Z,97764.00
2022-12-08T10:51:42.648Z,97765.56
2022-12-08T10:54:29.709Z,97763.00
2022-12-08T10:56:57.341Z,97771.91
2022-12-08T10:59:25.626Z,97763.94
2022-12-08T11:01:55.049Z,97761.06
2022-12-08T11:04:41.025Z,97758.34
2022-12-08T11:07:11.618Z,97762.34
2022-12-08T11:09:48.108Z,97760.75
2022-12-08T11:12:17.703Z,97753.53
2022-12-08T11:14:44.096Z,97749.81
2022-12-08T11:17:21.776Z,97746.25
2022-12-08T11:19:56.129Z,97746.81
2022-12-08T11:22:24.656Z,97739.38
2022-12-08T11:24:59.096Z,97730.63
2022-12-08T11:27:26.159Z,97731.09
2022-12-08T11:29:52.814Z,97725.03
2022-12-08T11:32:19.414Z,97725.91
2022-12-08T11:34:53.977Z,97725.91
2022-12-08T11:37:34.678Z,97720.84
2022-12-08T11:40:07.100Z,97723.63
2022-12-08T11:42:43.969Z,97732.81
2022-12-08T11:45:20.134Z,97718.94
2022-12-08T11:47:57.267Z,97724.22
2022-12-08T11:50:59.995Z,97723.22
2022-12-08T11:53:30.468Z,97715.22
2022-12-08T11:56:03.707Z,97711.34
2022-12-08T11:58:46.936Z,97711.16
2022-12-08T12:01:21.215Z,97705.91
2022-12-08T12:04:17.277Z,97696.50
2022-12-08T12:07:31.719Z,97697.63
2022-12-08T12:10:07.594Z,97700.94
2022-12-08T12:12:46.264Z,97696.03
2022-12-08T12:15:15.744Z,97684.69
2022-12-08T12:17:50.929Z,97682.47
2022-12-08T12:21:01.489Z,97683.81
2022-12-08T12:24:02.680Z,97681.56
2022-12-08T12:26:31.978Z,97676.34
2022-12-08T12:29:03.669Z,97673.81
2022-12-08T12:31:32.431Z,97675.13
2022-12-08T12:34:21.036Z,97675.78
2022-12-08T12:36:59.569Z,97676.31
2022-12-08T12:39:30.630Z,97669.97
2022-12-08T12:42:00.197Z,97663.00
2022-12-08T12:44:29.728Z,97661.06
2022-12-08T12:46:59.370Z,97661.53
2022-12-08T12:49:37.762Z,97659.19
2022-12-08T12:52:10.351Z,97661.47
2022-12-08T12:54:42.623Z,97658.38
2022-12-08T12:57:09.188Z,97668.09
2022-12-08T12:59:35.589Z,97663.28
2022-12-08T13:02:02.726Z,97665.53
2022-12-08T13:04:35.925Z,97663.38
2022-12-08T13:07:02.921Z,97662.91
2022-12-08T13:09:37.010Z,97652.63
2022-12-08T13:12:12.742Z,97651.88
2022-12-08T13:14:47.500Z,97653.53
2022-12-08T13:17:20.260Z,97656.22
2022-12-08T13:19:51.687Z,97645.31
2022-12-08T13:22:55.964Z,97653.06
2022-12-08T13:25:40.765Z,97646.78
2022-12-08T13:28:16.346Z,97640.31
2022-12-08T13:30:44.259Z,97643.66
2022-12-08T13:33:18.371Z,97646.72
2022-12-08T13:35:51.988Z,97637.16
2022-12-08T13:38:21.367Z,97640.50
2022-12-08T13:40:49.159Z,97638.16
2022-12-08T13:43:25.885Z,97632.66
2022-12-08T13:57:32.914Z,97634.41
2022-12-08T14:00:02.721Z,97633.31
2022-12-08T14:02:51.289Z,97640.34
2022-12-08T14:05:40.575Z,97639.16
2022-12-08T14:08:57.868Z,97637.47
2022-12-08T14:11:34.643Z,97634.75
2022-12-08T14:14:07.438Z,97642.81
2022-12-08T14:16:40.120Z,97641.66
2022-12-08T14:19:19.445Z,97636.88
2022-12-08T14:21:55.966Z,97636.06
2022-12-08T14:24:26.834Z,97642.88
2022-12-08T14:26:57.057Z,97637.00
2022-12-08T14:29:36.432Z,97639.97
2022-12-08T14:32:03.347Z,97641.00
2022-12-08T14:34:30.274Z,97647.19
2022-12-08T14:36:56.864Z,97645.56
2022-12-08T14:39:23.629Z,97646.13
2022-12-08T14:42:00.604Z,97648.25
2022-12-08T14:44:31.376Z,97655.44
2022-12-08T14:47:06.302Z,97647.63
2022-12-08T14:49:38.729Z,97645.97
2022-12-08T14:52:11.443Z,97639.06
2022-12-08T14:54:39.861Z,97644.78
2022-12-08T14:57:07.495Z,97645.38
2022-12-08T14:59:39.161Z,97635.72
2022-12-08T15:02:25.202Z,97648.22
2022-12-08T15:05:00.514Z,97643.97
2022-12-08T15:07:30.997Z,97642.97
2022-12-08T15:10:07.057Z,97647.78
2022-12-08T15:12:34.056Z,97648.72
2022-12-08T15:15:09.739Z,97656.84
2022-12-08T15:17:48.907Z,97653.59
2022-12-08T15:20:42.737Z,97657.63
2022-12-08T15:23:31.216Z,97657.22
2022-12-08T15:25:58.896Z,97650.66
2022-12-08T15:28:30.318Z,97653.63
2022-12-08T15:30:58.269Z,97656.72
2022-12-08T15:33:25.407Z,97653.50
2022-12-08T15:35:52.758Z,97650.75
2022-12-08T15:38:24.705Z,97649.94
2022-12-08T15:40:52.675Z,97647.63
2022-12-08T15:43:19.995Z,97646.47
2022-12-08T15:45:57.949Z,97637.56
2022-12-08T15:48:27.205Z,97645.53
2022-12-08T15:50:54.795Z,97642.78
2022-12-08T15:53:21.472Z,97640.19
2022-12-08T15:56:19.000Z,97647.53
2022-12-08T15:58:53.991Z,97647.19
2022-12-08T16:01:21.219Z,97648.31
2022-12-08T16:09:39.024Z,97642.47
2022-12-08T16:12:57.178Z,97637.94
2022-12-08T16:18:06.182Z,97638.91
2022-12-08T16:20:58.927Z,97637.78
2022-12-08T16:23:41.831Z,97635.50
2022-12-08T16:26:24.056Z,97635.66
2022-12-08T16:28:54.848Z,97629.31
2022-12-08T16:31:23.314Z,97644.44
2022-12-08T16:33:50.188Z,97643.13
2022-12-08T16:36:16.752Z,97644.59
2022-12-08T16:38:43.369Z,97637.44
2022-12-08T16:41:36.300Z,97639.03
2022-12-08T16:44:05.160Z,97634.81
2022-12-08T16:46:32.040Z,97630.28
2022-12-08T16:48:58.958Z,97623.13
2022-12-08T16:51:27.262Z,97628.66
2022-12-08T16:53:56.833Z,97626.56
2022-12-08T16:56:30.448Z,97627.66
2022-12-08T16:58:59.073Z,97613.84
2022-12-08T17:01:25.733Z,97613.53
2022-12-08T17:04:22.475Z,97618.25
2022-12-08T17:06:39.482Z,97619.53
2022-12-08T17:09:06.204Z,97619.22
2022-12-08T17:11:36.210Z,97620.69
2022-12-08T17:14:05.892Z,97619.22
2022-12-08T17:16:32.527Z,97623.13
2022-12-08T17:18:59.170Z,97613.53
2022-12-08T17:21:25.808Z,97619.22
2022-12-08T17:23:52.420Z,97613.84
2022-12-08T17:26:18.972Z,97611.25
2022-12-08T17:29:00.562Z,97613.34
2022-12-08T17:31:30.158Z,97611.91
2022-12-08T17:34:05.594Z,97616.44
2022-12-08T17:36:32.522Z,97616.28
2022-12-08T17:39:01.186Z,97605.72
2022-12-08T17:41:28.579Z,97608.16
2022-12-08T17:43:55.285Z,97604.38
2022-12-08T17:46:23.336Z,97603.06
2022-12-08T17:48:50.464Z,97597.50
2022-12-08T17:51:17.496Z,97599.38
2022-12-08T17:53:44.389Z,97601.06
2022-12-08T17:56:17.417Z,97600.63
2022-12-08T17:58:45.693Z,97602.66
2022-12-08T18:01:14.251Z,97605.22
2022-12-08T18:03:40.847Z,97595.41
2022-12-08T18:06:12.346Z,97605.66
2022-12-08T18:08:39.907Z,97615.94
2022-12-08T18:11:14.893Z,97604.97
2022-12-08T18:13:41.526Z,97613.25
2022-12-08T18:16:08.337Z,97606.03
2022-12-08T18:18:34.999Z,97611.34
2022-12-08T18:21:01.567Z,97610.53
2022-12-08T18:23:28.145Z,97608.41
2022-12-08T18:25:54.733Z,97608.25
2022-12-08T18:28:21.331Z,97613.78
2022-12-08T18:30:47.961Z,97612.28
2022-12-08T18:33:14.678Z,97617.28
2022-12-08T18:35:41.530Z,97611.81
2022-12-08T18:38:08.056Z,97613.81
2022-12-08T18:40:34.619Z,97616.97
2022-12-08T18:43:01.160Z,97609.66
2022-12-08T18:45:27.804Z,97611.44
2022-12-08T18:47:54.746Z,97600.75
2022-12-08T18:50:21.375Z,97606.94
2022-12-08T18:52:48.356Z,97602.25
2022-12-08T18:55:15.559Z,97611.13
2022-12-08T18:57:43.267Z,97616.44
2022-12-08T19:00:18.305Z,97611.34
2022-12-08T19:02:45.297Z,97615.22
2022-12-08T19:05:13.637Z,97612.50
2022-12-08T19:07:42.356Z,97609.50
2022-12-08T19:10:09.687Z,97620.94
2022-12-08T19:12:36.634Z,97608.84
2022-12-08T19:15:04.266Z,97614.91
2022-12-08T19:17:31.031Z,97612.31
2022-12-08T19:19:57.719Z,97614.22
2022-12-08T19:22:24.318Z,97609.81
2022-12-08T19:24:50.950Z,97617.34
2022-12-08T19:27:18.558Z,97607.63
2022-12-08T19:29:45.279Z,97604.16
2022-12-08T19:32:11.963Z,97607.91
2022-12-08T19:34:38.507Z,97608.56
2022-12-08T19:37:05.157Z,97613.53
2022-12-08T19:39:50.458Z,97612.44
2022-12-08T19:42:38.707Z,97603.31
2022-12-08T19:45:17.519Z,97602.88
2022-12-08T19:47:44.271Z,97606.34
2022-12-08T19:50:33.207Z,97609.09
2022-12-08T19:53:00.920Z,97598.78
2022-12-08T19:55:28.222Z,97597.63
2022-12-08T19:57:56.675Z,97595.16
2022-12-08T20:00:23.784Z,97584.34
2022-12-08T20:02:50.469Z,97585.75
2022-12-08T20:05:17.301Z,97584.03
2022-12-08T20:07:43.976Z,97584.78
2022-12-08T20:10:22.170Z,97572.50
2022-12-08T20:12:48.949Z,97581.41
2022-12-08T20:15:15.557Z,97577.72
2022-12-08T20:17:42.691Z,97583.50
2022-12-08T20:20:12.121Z,97587.06
2022-12-08T20:22:38.826Z,97585.00
2022-12-08T20:25:05.851Z,97591.28
2022-12-08T20:27:32.953Z,97590.13
2022-12-08T20:29:59.629Z,97593.59
2022-12-08T20:32:26.271Z,97593.25
2022-12-08T20:34:52.948Z,97594.06
2022-12-08T20:37:19.780Z,97594.94
2022-12-08T20:39:46.411Z,97591.94
2022-12-08T20:42:13.794Z,97598.69
2022-12-08T20:44:44.245Z,97589.63
2022-12-08T20:47:12.144Z,97597.91
2022-12-08T20:49:38.999Z,97602.59
2022-12-08T20:52:05.652Z,97593.41
2022-12-08T20:54:32.231Z,97591.56
2022-12-08T20:56:58.765Z,97590.66
2022-12-08T20:59:26.434Z,97589.41
2022-12-08T21:01:53.998Z,97592.38
2022-12-08T21:04:21.497Z,97596.38
2022-12-08T21:06:48.659Z,97592.31
2022-12-08T21:09:15.471Z,97597.03
2022-12-08T21:11:42.148Z,97591.31
2022-12-08T21:14:08.853Z,97596.81
2022-12-08T21:16:35.784Z,97589.84
2022-12-08T21:19:02.775Z,97586.22
2022-12-08T21:21:29.508Z,97589.16
2022-12-08T21:23:56.168Z,97577.72
2022-12-08T21:26:26.048Z,97574.34
2022-12-08T21:28:54.813Z,97579.94
2022-12-08T21:31:22.295Z,97574.63
2022-12-08T21:33:49.330Z,97574.69
2022-12-08T21:36:18.758Z,97580.03
2022-12-08T21:38:46.582Z,97584.81
2022-12-08T21:41:16.315Z,97582.41
2022-12-08T21:43:43.456Z,97588.75
2022-12-08T21:46:17.343Z,97581.56
2022-12-08T21:48:44.486Z,97584.97
2022-12-08T21:51:11.299Z,97584.25
2022-12-08T21:53:38.092Z,97578.22
2022-12-08T21:56:09.215Z,97573.69
2022-12-08T21:58:36.028Z,97584.34
2022-12-08T22:01:07.474Z,97580.00
2022-12-08T22:03:34.432Z,97575.72
2022-12-08T22:06:06.114Z,97576.38
2022-12-08T22:08:33.272Z,97582.38
2022-12-08T22:11:00.827Z,97576.53
2022-12-08T22:13:27.706Z,97580.72
2022-12-08T22:16:02.636Z,97584.94
2022-12-08T22:18:29.540Z,97592.81
2022-12-08T22:20:56.555Z,97593.03
2022-12-08T22:23:24.266Z,97588.25
2022-12-08T22:25:58.411Z,97584.22
2022-12-08T22:28:26.039Z,97589.09
2022-12-08T22:30:53.505Z,97587.66
2022-12-08T22:33:20.673Z,97581.94
2022-12-08T22:35:58.522Z,97586.03
2022-12-08T22:38:25.369Z,97585.22
2022-12-08T22:40:52.826Z,97586.38
2022-12-08T22:43:20.140Z,97592.47
2022-12-08T22:45:46.983Z,97579.94
2022-12-08T22:48:14.474Z,97573.75
2022-12-08T22:50:41.921Z,97577.09
2022-12-08T22:53:11.541Z,97572.16
2022-12-08T22:55:44.828Z,97573.69
2022-12-08T22:58:12.295Z,97566.97
2022-12-08T23:00:39.445Z,97568.00
2022-12-08T23:03:06.534Z,97565.75
2022-12-08T23:05:35.131Z,97558.53
2022-12-08T23:08:02.968Z,97558.88
2022-12-08T23:10:30.479Z,97556.59
2022-12-08T23:13:03.520Z,97555.78
2022-12-08T23:15:30.703Z,97546.41
2022-12-08T23:17:57.497Z,97550.47
2022-12-08T23:20:24.461Z,97549.97
2022-12-08T23:22:51.134Z,97545.72
2022-12-08T23:25:18.566Z,97551.91
2022-12-08T23:27:46.134Z,97545.84
2022-12-08T23:30:13.539Z,97550.47
2022-12-08T23:32:40.244Z,97540.44
2022-12-08T23:35:07.654Z,97534.91
2022-12-08T23:37:34.779Z,97532.38
2022-12-08T23:40:02.013Z,97531.00
2022-12-08T23:42:30.454Z,97523.34
2022-12-08T23:44:57.114Z,97522.22
2022-12-08T23:47:24.149Z,97522.25
2022-12-08T23:49:51.136Z,97520.97
2022-12-08T23:52:17.743Z,97520.06
2022-12-08T23:54:44.952Z,97510.53
2022-12-08T23:57:11.685Z,97513.56
2022-12-08T23:59:38.276Z,97513.72
